Time;durP1;ratioP1;P1;durP2;ratioP2;P2;SDS_P1;SDS_P2;PMS_P1;PMS_P2;Temp;Humidity;BMP_temperature;BMP_pressure;BME280_temperature;BME280_humidity;BME280_pressure;Samples;Min_cycle;Max_cycle;Signal;HPM_P1;HPM_P2
2022/12/27 00:01:17;;;;;;;8.30;2.08;;;3.20;99.90;;;;;;5146909;27;20115;-56
2022/12/27 00:03:43;;;;;;;20.63;3.28;;;3.20;99.90;;;;;;5146527;27;20099;-56
2022/12/27 00:06:13;;;;;;;13.05;2.75;;;3.30;99.90;;;;;;5147187;27;20494;-51
2022/12/27 00:08:40;;;;;;;15.43;2.90;;;3.30;99.90;;;;;;5145083;27;20410;-57
2022/12/27 00:11:07;;;;;;;12.07;2.30;;;3.30;99.90;;;;;;5147011;27;20696;-52
2022/12/27 00:13:33;;;;;;;10.88;2.72;;;3.30;99.90;;;;;;5146352;27;20057;-52
2022/12/27 00:16:08;;;;;;;13.23;2.97;;;3.30;99.90;;;;;;5146422;27;20031;-56
2022/12/27 00:18:33;;;;;;;17.15;3.35;;;3.40;99.90;;;;;;5145994;27;20030;-53
2022/12/27 00:21:01;;;;;;;17.17;2.83;;;3.30;99.90;;;;;;5146331;27;20047;-56
2022/12/27 00:23:29;;;;;;;9.40;2.60;;;3.40;99.90;;;;;;5145119;27;20050;-55
2022/12/27 00:26:02;;;;;;;18.73;2.70;;;3.50;99.90;;;;;;5146957;27;20094;-57
2022/12/27 00:28:32;;;;;;;16.07;2.80;;;3.50;99.90;;;;;;5147063;27;20039;-55
2022/12/27 00:30:59;;;;;;;17.52;2.88;;;3.50;99.90;;;;;;5145072;27;20118;-56
2022/12/27 00:33:26;;;;;;;14.85;2.83;;;3.60;99.90;;;;;;5145544;27;20026;-57
2022/12/27 00:35:51;;;;;;;14.23;2.47;;;3.60;99.90;;;;;;5146393;27;20074;-56
2022/12/27 00:38:17;;;;;;;19.58;2.95;;;3.70;99.90;;;;;;5145035;27;20081;-54
2022/12/27 00:40:42;;;;;;;13.65;2.20;;;3.80;99.90;;;;;;5146033;27;20039;-55
2022/12/27 00:43:08;;;;;;;18.75;3.15;;;3.80;99.90;;;;;;5127736;27;20102;-56
2022/12/27 00:45:34;;;;;;;15.75;2.70;;;3.90;99.90;;;;;;5146076;27;20067;-54
2022/12/27 00:47:59;;;;;;;12.43;1.95;;;3.90;99.90;;;;;;5144913;27;20599;-57
2022/12/27 00:50:25;;;;;;;12.82;2.97;;;4.00;99.90;;;;;;5145661;27;20145;-53
2022/12/27 00:52:51;;;;;;;11.27;2.10;;;4.00;99.90;;;;;;5126031;27;20112;-57
2022/12/27 00:55:16;;;;;;;7.80;1.60;;;4.00;99.90;;;;;;5146457;27;20038;-56
2022/12/27 00:57:42;;;;;;;15.50;2.92;;;4.00;99.90;;;;;;5146666;27;20038;-55
2022/12/27 01:00:08;;;;;;;17.40;2.97;;;4.00;99.90;;;;;;5144877;27;20440;-53
2022/12/27 01:02:34;;;;;;;16.52;2.85;;;4.00;99.90;;;;;;5144101;27;20054;-55
2022/12/27 01:04:59;;;;;;;16.58;2.40;;;4.00;99.90;;;;;;5145392;27;20408;-55
2022/12/27 01:07:26;;;;;;;14.13;2.00;;;4.00;99.90;;;;;;5143103;27;20493;-55
2022/12/27 01:09:51;;;;;;;11.57;2.38;;;4.00;99.90;;;;;;5126777;27;20569;-58
2022/12/27 01:12:17;;;;;;;12.27;2.17;;;4.00;99.90;;;;;;5145357;27;20030;-56
2022/12/27 01:14:43;;;;;;;15.27;3.00;;;4.00;99.90;;;;;;5145591;27;20434;-54
2022/12/27 01:17:08;;;;;;;11.82;2.35;;;4.00;99.90;;;;;;5143970;27;20401;-52
2022/12/27 01:19:35;;;;;;;14.98;2.63;;;3.90;99.90;;;;;;5145134;27;20034;-54
2022/12/27 01:22:01;;;;;;;13.27;2.42;;;3.90;99.90;;;;;;5143390;27;20043;-57
2022/12/27 01:24:27;;;;;;;14.10;2.92;;;3.90;99.90;;;;;;5145981;27;20760;-56
2022/12/27 01:26:52;;;;;;;14.63;2.45;;;4.00;99.90;;;;;;5145884;27;20046;-52
2022/12/27 01:29:18;;;;;;;14.57;2.55;;;4.00;99.90;;;;;;5144181;27;20042;-54
2022/12/27 01:31:43;;;;;;;12.82;3.33;;;4.00;99.90;;;;;;5143752;27;20157;-52
2022/12/27 01:34:09;;;;;;;12.60;2.50;;;4.10;99.90;;;;;;5145759;27;20031;-56
2022/12/27 01:36:35;;;;;;;12.98;2.97;;;4.20;99.90;;;;;;5126256;27;20250;-56
2022/12/27 01:39:02;;;;;;;15.15;2.08;;;4.20;99.90;;;;;;5145610;27;20700;-58
2022/12/27 01:44:38;;;;;;;18.63;2.72;;;4.30;99.90;;;;;;5145955;27;20597;-56
2022/12/27 01:47:30;;;;;;;20.38;2.33;;;4.40;99.90;;;;;;5143990;27;20046;-57
2022/12/27 01:50:20;;;;;;;18.98;2.70;;;4.50;99.90;;;;;;5144546;27;20821;-57
2022/12/27 01:53:15;;;;;;;13.60;2.60;;;4.50;99.90;;;;;;5143477;27;20046;-55
2022/12/27 01:55:46;;;;;;;18.00;2.88;;;4.40;99.90;;;;;;5131262;27;20046;-58
2022/12/27 01:58:29;;;;;;;13.05;2.10;;;4.30;99.90;;;;;;5144884;27;20102;-57
2022/12/27 02:00:55;;;;;;;13.88;2.38;;;4.20;99.90;;;;;;5143819;27;20092;-57
2022/12/27 02:03:31;;;;;;;17.73;2.60;;;4.10;99.90;;;;;;5144116;27;20493;-58
2022/12/27 02:06:00;;;;;;;14.52;3.38;;;4.10;99.90;;;;;;5144610;27;20046;-57
2022/12/27 02:08:31;;;;;;;13.77;2.67;;;4.10;99.90;;;;;;5143402;27;20074;-57
2022/12/27 02:10:57;;;;;;;12.07;2.33;;;4.10;99.90;;;;;;5145394;27;20043;-57
2022/12/27 02:13:23;;;;;;;12.80;2.60;;;4.10;99.90;;;;;;5144861;27;20042;-57
2022/12/27 02:15:49;;;;;;;16.55;3.33;;;4.00;99.90;;;;;;5126221;27;20393;-58
2022/12/27 02:18:15;;;;;;;15.82;4.82;;;4.10;99.90;;;;;;5144727;27;20035;-59
2022/12/27 02:21:05;;;;;;;11.73;2.25;;;4.10;99.90;;;;;;5144402;27;20633;-59
2022/12/27 02:24:05;;;;;;;23.58;3.45;;;4.10;99.90;;;;;;5143266;27;20635;-58
2022/12/27 02:26:58;;;;;;;18.00;2.90;;;4.00;99.90;;;;;;5145271;27;20035;-57
2022/12/27 02:29:47;;;;;;;14.30;2.83;;;3.90;99.90;;;;;;5143746;27;20082;-58
2022/12/27 02:32:22;;;;;;;20.65;3.10;;;3.80;99.90;;;;;;5143809;27;20106;-57
2022/12/27 02:35:25;;;;;;;17.23;3.20;;;3.70;99.90;;;;;;5148609;27;20038;-57
2022/12/27 02:38:00;;;;;;;13.30;2.60;;;3.70;99.90;;;;;;5146768;27;20046;-56
2022/12/27 02:55:15;;;;;;;12.35;2.30;;;3.80;99.90;;;;;;5148751;27;20047;-57
2022/12/27 02:58:04;;;;;;;15.18;2.35;;;3.90;99.90;;;;;;5148048;27;20027;-57
2022/12/27 03:03:35;;;;;;;13.05;2.45;;;4.00;99.90;;;;;;5143747;27;20129;-58
2022/12/27 03:08:56;;;;;;;19.83;2.85;;;4.00;99.90;;;;;;5126654;27;20051;-57
2022/12/27 03:17:13;;;;;;;16.57;2.67;;;4.00;99.90;;;;;;5145965;27;20681;-58
2022/12/27 03:25:27;;;;;;;18.02;2.83;;;3.90;99.90;;;;;;5148088;27;20663;-58
2022/12/27 03:33:49;;;;;;;16.63;2.42;;;3.90;99.90;;;;;;5146855;27;20039;-56
2022/12/27 03:39:18;;;;;;;15.40;2.40;;;3.80;99.90;;;;;;5125541;27;20043;-56
2022/12/27 03:44:43;;;;;;;17.20;3.25;;;3.80;99.90;;;;;;5146965;27;20081;-58
2022/12/27 03:47:22;;;;;;;19.02;2.70;;;3.80;99.90;;;;;;5145040;27;20074;-55
2022/12/27 03:50:10;;;;;;;12.13;2.20;;;3.80;99.90;;;;;;5147056;27;20047;-57
2022/12/27 03:52:43;;;;;;;15.80;3.22;;;3.80;99.90;;;;;;5145423;27;20425;-56
2022/12/27 03:55:10;;;;;;;13.43;2.55;;;3.90;99.90;;;;;;5147371;27;20038;-57
2022/12/27 03:57:36;;;;;;;16.20;2.80;;;3.90;99.90;;;;;;5146866;27;20042;-56
2022/12/27 04:00:04;;;;;;;17.65;3.38;;;4.00;99.90;;;;;;5147125;27;20042;-57
2022/12/27 04:02:29;;;;;;;17.75;2.85;;;4.00;99.90;;;;;;5145376;27;20046;-58
2022/12/27 04:04:55;;;;;;;16.80;3.30;;;4.00;99.90;;;;;;5147151;27;20073;-57
2022/12/27 04:07:20;;;;;;;15.80;2.60;;;4.00;99.90;;;;;;5145578;27;20038;-57
2022/12/27 04:34:43;;;;;;;6.95;1.52;;;3.80;99.90;;;;;;5147064;27;20042;-58
2022/12/27 04:37:15;;;;;;;9.82;1.85;;;3.80;99.90;;;;;;5144615;27;20042;-56
2022/12/27 04:54:55;;;;;;;11.95;1.80;;;3.80;99.90;;;;;;5143859;27;20043;-58
2022/12/27 04:56:15;;;;;;;13.32;1.75;;;3.50;99.90;;;;;;5145597;27;20050;-56
2022/12/27 05:02:01;;;;;;;15.13;2.53;;;3.50;99.90;;;;;;5145894;27;20883;-58
2022/12/27 05:04:11;;;;;;;9.57;2.20;;;3.50;99.90;;;;;;5125962;27;20043;-57
2022/12/27 05:06:37;;;;;;;11.50;2.53;;;3.50;99.90;;;;;;5133928;27;20798;-57
2022/12/27 05:14:44;;;;;;;11.13;2.38;;;3.60;99.90;;;;;;5099253;27;20118;-56
2022/12/27 05:17:10;;;;;;;17.63;2.22;;;3.70;99.90;;;;;;5143515;27;20121;-53
2022/12/27 05:19:36;;;;;;;14.35;2.30;;;3.80;99.90;;;;;;5145248;27;20447;-57
2022/12/27 05:27:30;;;;;;;15.38;2.25;;;3.90;99.90;;;;;;5146220;27;20616;-55
2022/12/27 05:29:55;;;;;;;12.30;2.20;;;3.90;99.90;;;;;;5145156;27;20122;-57
2022/12/27 05:32:21;;;;;;;12.27;2.15;;;4.00;99.90;;;;;;5143862;27;20136;-56
2022/12/27 05:34:46;;;;;;;10.85;1.98;;;3.90;99.90;;;;;;5145369;27;20675;-57
2022/12/27 05:37:12;;;;;;;15.95;2.45;;;3.80;99.90;;;;;;5142850;27;20438;-55
2022/12/27 05:39:38;;;;;;;12.55;2.35;;;3.80;99.90;;;;;;5127122;27;20114;-56
2022/12/27 05:42:03;;;;;;;8.18;1.80;;;3.80;99.90;;;;;;5144903;27;20524;-54
2022/12/27 05:44:29;;;;;;;13.85;2.65;;;3.70;99.90;;;;;;5127219;27;20035;-56
2022/12/27 05:46:55;;;;;;;14.32;2.40;;;3.70;99.90;;;;;;5143013;27;20053;-56
2022/12/27 05:49:20;;;;;;;11.93;1.83;;;3.70;99.90;;;;;;5145342;27;20058;-55
2022/12/27 05:51:46;;;;;;;9.40;1.65;;;3.60;99.90;;;;;;5142942;27;20049;-58
2022/12/27 05:54:12;;;;;;;10.07;1.73;;;3.60;99.90;;;;;;5145178;27;20045;-58
2022/12/27 05:56:37;;;;;;;11.30;1.83;;;3.50;99.90;;;;;;5145537;27;20034;-56
2022/12/27 05:59:04;;;;;;;12.52;1.90;;;3.40;99.90;;;;;;5144225;27;20052;-57
2022/12/27 06:01:29;;;;;;;9.38;1.70;;;3.40;99.90;;;;;;5144699;27;20080;-54
2022/12/27 06:03:55;;;;;;;16.65;2.75;;;3.30;99.90;;;;;;5144352;27;20086;-57
2022/12/27 06:06:21;;;;;;;13.38;2.53;;;3.30;99.90;;;;;;5125862;27;20058;-56
2022/12/27 06:08:46;;;;;;;12.68;2.25;;;3.20;99.90;;;;;;5147226;27;20050;-55
2022/12/27 06:11:17;;;;;;;15.93;2.42;;;3.20;99.90;;;;;;5113727;27;20039;-57
2022/12/27 06:13:47;;;;;;;11.18;2.25;;;3.20;99.90;;;;;;5149750;27;20559;-54
2022/12/27 06:16:12;;;;;;;12.35;2.33;;;3.20;99.90;;;;;;5129347;27;20043;-56
2022/12/27 06:18:39;;;;;;;14.60;2.25;;;3.20;99.90;;;;;;5146274;27;20053;-55
2022/12/27 06:21:08;;;;;;;13.45;2.90;;;3.20;99.90;;;;;;5148573;27;20038;-58
2022/12/27 06:23:36;;;;;;;9.70;2.67;;;3.30;99.90;;;;;;5147486;27;20163;-56
2022/12/27 06:26:11;;;;;;;16.05;2.22;;;3.30;99.90;;;;;;5149196;27;20470;-56
2022/12/27 06:28:37;;;;;;;17.83;2.13;;;3.20;99.90;;;;;;5148854;27;20041;-57
2022/12/27 06:31:03;;;;;;;16.00;2.85;;;3.20;99.90;;;;;;5138769;27;20043;-54
2022/12/27 06:33:28;;;;;;;18.23;2.95;;;3.10;99.90;;;;;;5136778;27;20043;-56
2022/12/27 06:35:54;;;;;;;16.23;2.42;;;3.10;99.90;;;;;;5138503;27;20039;-56
2022/12/27 06:38:20;;;;;;;19.58;2.47;;;3.10;99.90;;;;;;5138173;27;20035;-55
2022/12/27 06:40:45;;;;;;;14.75;2.30;;;3.10;99.90;;;;;;5137701;27;20114;-56
2022/12/27 06:43:11;;;;;;;14.15;2.80;;;3.00;99.90;;;;;;5139568;27;20137;-55
2022/12/27 06:45:37;;;;;;;11.95;2.47;;;3.00;99.90;;;;;;5137378;27;20043;-55
2022/12/27 06:48:03;;;;;;;15.73;3.13;;;3.00;99.90;;;;;;5140899;27;20163;-55
2022/12/27 06:50:29;;;;;;;13.13;2.63;;;3.00;99.90;;;;;;5138237;27;20047;-57
2022/12/27 06:52:54;;;;;;;17.38;2.97;;;3.00;99.90;;;;;;5143294;27;20047;-55
2022/12/27 06:55:20;;;;;;;13.45;2.30;;;3.00;99.90;;;;;;5148747;27;20027;-54
2022/12/27 06:57:45;;;;;;;15.45;2.83;;;3.00;99.90;;;;;;5142755;27;20035;-54
2022/12/27 07:00:15;;;;;;;12.35;2.42;;;2.90;99.90;;;;;;5122630;27;20081;-56
2022/12/27 07:02:40;;;;;;;16.35;2.85;;;2.90;99.90;;;;;;5143054;27;20030;-55
2022/12/27 07:05:06;;;;;;;15.32;2.80;;;2.80;99.90;;;;;;5133241;27;20046;-57
2022/12/27 07:07:32;;;;;;;16.88;2.45;;;2.80;99.90;;;;;;5125351;27;20791;-53
2022/12/27 07:09:58;;;;;;;11.45;2.30;;;2.90;99.90;;;;;;5128172;27;20061;-54
2022/12/27 07:12:23;;;;;;;15.77;2.80;;;2.90;99.90;;;;;;5128033;27;20039;-56
2022/12/27 07:14:49;;;;;;;17.17;2.72;;;2.90;99.90;;;;;;5146826;27;20472;-55
2022/12/27 07:17:15;;;;;;;16.73;2.75;;;2.90;99.90;;;;;;5142463;27;20113;-57
2022/12/27 07:19:40;;;;;;;14.43;2.20;;;2.80;99.90;;;;;;5145585;27;20034;-54
2022/12/27 07:22:06;;;;;;;13.90;2.58;;;2.80;99.90;;;;;;5132329;27;20054;-56
2022/12/27 07:24:32;;;;;;;14.93;2.45;;;2.80;99.90;;;;;;5135014;27;20035;-55
2022/12/27 07:26:58;;;;;;;14.95;2.20;;;2.80;99.90;;;;;;5141795;27;20653;-54
2022/12/27 07:29:24;;;;;;;12.48;2.28;;;2.80;99.90;;;;;;5126414;27;20051;-55
2022/12/27 07:31:50;;;;;;;12.30;2.53;;;2.80;99.90;;;;;;5133441;27;20296;-54
2022/12/27 07:34:15;;;;;;;10.48;2.30;;;2.80;99.90;;;;;;5147815;27;20050;-53
2022/12/27 07:36:41;;;;;;;16.40;3.00;;;2.90;99.90;;;;;;5132470;27;20033;-53
2022/12/27 07:39:07;;;;;;;13.50;2.70;;;2.90;99.90;;;;;;5107589;27;20070;-56
2022/12/27 07:41:34;;;;;;;16.15;2.30;;;3.00;99.90;;;;;;5127895;27;20047;-57
2022/12/27 07:44:00;;;;;;;19.95;3.08;;;3.00;99.90;;;;;;5141804;27;20084;-56
2022/12/27 07:46:26;;;;;;;13.15;2.25;;;3.00;99.90;;;;;;5143398;27;20137;-54
2022/12/27 07:48:54;;;;;;;14.90;2.53;;;3.00;99.90;;;;;;5132984;27;20121;-53
2022/12/27 07:51:20;;;;;;;19.45;3.40;;;3.00;99.90;;;;;;5145200;27;20090;-55
2022/12/27 07:53:48;;;;;;;20.20;2.78;;;3.00;99.90;;;;;;5136545;27;20126;-56
2022/12/27 07:56:18;;;;;;;21.55;3.15;;;3.10;99.90;;;;;;5132493;27;20383;-54
2022/12/27 07:58:47;;;;;;;19.77;3.85;;;3.10;99.90;;;;;;5136389;27;20034;-55
2022/12/27 08:01:14;;;;;;;20.50;3.35;;;3.20;99.90;;;;;;5130958;27;20079;-55
2022/12/27 08:03:39;;;;;;;14.15;2.75;;;3.20;99.90;;;;;;5146860;27;20039;-51
2022/12/27 08:06:07;;;;;;;20.02;3.17;;;3.30;99.90;;;;;;5130946;27;20039;-53
2022/12/27 08:08:41;;;;;;;12.50;3.10;;;3.30;99.90;;;;;;5145423;27;20066;-56
2022/12/27 08:11:07;;;;;;;15.45;2.60;;;3.30;99.90;;;;;;5129608;27;20039;-51
2022/12/27 08:13:33;;;;;;;13.20;3.08;;;3.30;99.90;;;;;;5125608;27;20039;-56
2022/12/27 08:15:58;;;;;;;23.65;3.45;;;3.30;99.90;;;;;;5126984;27;20045;-55
2022/12/27 08:18:24;;;;;;;13.98;2.67;;;3.20;99.90;;;;;;5138244;27;20569;-56
2022/12/27 08:20:50;;;;;;;18.25;2.80;;;3.20;99.90;;;;;;5127846;27;20525;-57
2022/12/27 08:23:16;;;;;;;23.33;3.35;;;3.20;99.90;;;;;;5136245;27;20054;-54
2022/12/27 08:25:41;;;;;;;16.13;3.10;;;3.30;99.90;;;;;;5126259;27;20046;-52
2022/12/27 08:28:10;;;;;;;21.75;3.88;;;3.30;99.90;;;;;;5125292;27;20054;-52
2022/12/27 08:30:37;;;;;;;17.00;3.17;;;3.30;99.90;;;;;;5137338;27;20076;-53
2022/12/27 08:33:03;;;;;;;19.00;3.33;;;3.30;99.90;;;;;;5143261;27;20045;-55
2022/12/27 08:35:29;;;;;;;21.20;4.18;;;3.30;99.90;;;;;;5138055;27;20476;-55
2022/12/27 08:37:54;;;;;;;17.40;3.63;;;3.30;99.90;;;;;;5144566;27;20486;-53
2022/12/27 08:40:21;;;;;;;22.67;4.18;;;3.30;99.90;;;;;;5131967;27;20039;-55
2022/12/27 08:42:46;;;;;;;12.90;3.05;;;3.40;99.90;;;;;;5133515;27;20112;-54
2022/12/27 08:45:12;;;;;;;18.63;3.47;;;3.40;99.90;;;;;;5130959;27;20054;-55
2022/12/27 08:47:38;;;;;;;23.38;4.18;;;3.40;99.90;;;;;;5142644;27;20042;-55
2022/12/27 08:50:06;;;;;;;20.75;3.40;;;3.40;99.90;;;;;;5142886;27;20449;-51
2022/12/27 08:52:32;;;;;;;16.35;3.17;;;3.50;99.90;;;;;;5141035;27;20055;-56
2022/12/27 08:54:57;;;;;;;18.20;3.38;;;3.50;99.90;;;;;;5142590;27;20382;-54
2022/12/27 08:57:23;;;;;;;16.08;3.30;;;3.50;99.90;;;;;;5142507;27;20029;-55
2022/12/27 08:59:48;;;;;;;18.65;3.50;;;3.50;99.90;;;;;;5142851;27;20062;-52
2022/12/27 09:02:14;;;;;;;15.20;3.55;;;3.50;99.90;;;;;;5138647;27;20125;-49
2022/12/27 09:04:40;;;;;;;16.40;3.13;;;3.50;99.90;;;;;;5138068;27;20084;-53
2022/12/27 09:07:05;;;;;;;14.18;2.58;;;3.60;99.90;;;;;;5140443;27;20045;-51
2022/12/27 09:09:31;;;;;;;17.00;3.15;;;3.60;99.90;;;;;;5127577;27;20049;-55
2022/12/27 09:11:56;;;;;;;20.70;3.70;;;3.60;99.90;;;;;;5125335;27;20509;-50
2022/12/27 09:14:22;;;;;;;19.30;3.42;;;3.60;99.90;;;;;;5133124;27;20035;-55
2022/12/27 09:16:47;;;;;;;17.65;3.05;;;3.70;99.90;;;;;;5138099;27;20110;-55
2022/12/27 09:19:13;;;;;;;15.63;3.75;;;3.80;99.90;;;;;;5144314;27;20045;-54
2022/12/27 09:21:40;;;;;;;17.90;3.20;;;3.80;99.90;;;;;;5124771;27;20039;-54
2022/12/27 09:24:11;;;;;;;27.98;5.10;;;3.90;99.90;;;;;;5140803;27;20083;-55
2022/12/27 09:26:37;;;;;;;15.63;3.63;;;3.90;99.90;;;;;;5124953;27;20039;-54
2022/12/27 09:29:02;;;;;;;14.10;3.00;;;3.90;99.90;;;;;;5124511;27;20046;-56
2022/12/27 09:31:28;;;;;;;20.65;3.15;;;3.90;99.90;;;;;;5133128;27;20060;-55
2022/12/27 09:33:55;;;;;;;12.30;3.20;;;4.00;99.90;;;;;;5134889;27;20030;-54
2022/12/27 09:36:23;;;;;;;18.40;3.03;;;4.00;99.90;;;;;;5133985;27;20033;-52
2022/12/27 09:38:51;;;;;;;22.33;3.33;;;4.00;99.90;;;;;;5109241;27;20117;-53
2022/12/27 09:41:55;;;;;;;13.85;3.30;;;4.00;99.90;;;;;;5124947;27;20453;-56
2022/12/27 09:44:46;;;;;;;11.15;3.13;;;4.00;99.90;;;;;;5122334;27;20054;-54
2022/12/27 09:47:27;;;;;;;23.90;4.32;;;4.10;99.90;;;;;;5114772;27;20042;-53
2022/12/27 09:49:59;;;;;;;13.80;2.63;;;4.10;99.90;;;;;;5144624;27;20045;-52
2022/12/27 09:52:33;;;;;;;20.38;3.78;;;4.10;99.90;;;;;;5143136;27;20526;-50
2022/12/27 09:55:04;;;;;;;21.40;3.30;;;4.20;99.90;;;;;;5145481;27;20043;-54
2022/12/27 09:57:35;;;;;;;17.90;3.67;;;4.30;99.90;;;;;;5145429;27;20127;-52
2022/12/27 10:00:05;;;;;;;14.63;3.25;;;4.30;99.90;;;;;;5144515;27;20071;-52
2022/12/27 10:02:33;;;;;;;17.40;3.22;;;4.30;99.90;;;;;;5143835;27;20039;-55
2022/12/27 10:04:58;;;;;;;21.02;4.15;;;4.40;99.90;;;;;;5145090;27;20069;-52
2022/12/27 10:07:41;;;;;;;18.50;4.07;;;4.50;99.90;;;;;;5117860;28;20525;-53
2022/12/27 10:10:31;;;;;;;16.90;3.08;;;4.60;99.90;;;;;;5105713;28;20437;-54
2022/12/27 10:13:17;;;;;;;10.02;3.65;;;4.60;99.90;;;;;;5124469;28;20425;-53
2022/12/27 10:16:11;;;;;;;12.35;2.80;;;4.70;99.90;;;;;;5124690;28;20054;-55
2022/12/27 10:19:04;;;;;;;16.55;3.53;;;4.80;99.90;;;;;;5136642;27;20442;-53
2022/12/27 10:21:34;;;;;;;21.10;3.58;;;4.80;99.90;;;;;;5144429;27;20130;-55
2022/12/27 10:24:10;;;;;;;16.77;3.10;;;4.90;99.90;;;;;;5143686;27;20405;-54
2022/12/27 10:26:37;;;;;;;17.17;3.10;;;4.90;99.90;;;;;;5145147;27;20061;-52
2022/12/27 10:29:21;;;;;;;11.82;3.05;;;5.00;99.90;;;;;;5136204;27;20046;-53
2022/12/27 10:31:47;;;;;;;17.65;3.15;;;5.00;99.90;;;;;;5135181;27;20035;-54
2022/12/27 10:34:15;;;;;;;14.68;3.63;;;5.00;99.90;;;;;;5131781;27;20070;-54
2022/12/27 10:36:42;;;;;;;19.35;3.85;;;5.10;99.90;;;;;;5133379;27;20035;-56
2022/12/27 10:39:20;;;;;;;14.27;2.65;;;5.10;99.90;;;;;;5126772;27;20412;-55
2022/12/27 10:41:49;;;;;;;16.35;3.13;;;5.20;99.90;;;;;;5127713;27;20360;-56
2022/12/27 10:44:15;;;;;;;15.75;3.05;;;5.30;99.90;;;;;;5144639;27;20481;-55
2022/12/27 10:46:43;;;;;;;14.05;2.75;;;5.50;99.90;;;;;;5143383;27;20058;-55
2022/12/27 10:49:30;;;;;;;13.10;3.42;;;5.60;99.90;;;;;;5124926;27;20138;-57
2022/12/27 10:52:15;;;;;;;16.35;3.17;;;5.70;99.90;;;;;;5139984;27;20058;-54
2022/12/27 10:54:55;;;;;;;14.05;3.13;;;5.80;99.90;;;;;;5146597;27;20311;-56
2022/12/27 10:57:32;;;;;;;19.73;3.35;;;5.90;99.90;;;;;;5148772;27;20057;-54
2022/12/27 11:00:20;;;;;;;19.70;2.97;;;6.00;99.90;;;;;;5147792;27;20038;-52
2022/12/27 11:02:49;;;;;;;15.80;2.80;;;6.20;99.90;;;;;;5146196;27;20455;-51
2022/12/27 11:05:24;;;;;;;15.93;3.47;;;6.50;99.90;;;;;;5110130;27;20514;-57
2022/12/27 11:07:50;;;;;;;13.85;2.40;;;6.50;99.90;;;;;;5138683;27;20351;-54
2022/12/27 11:10:21;;;;;;;13.95;3.10;;;6.60;99.90;;;;;;5130562;27;20087;-56
2022/12/27 11:12:59;;;;;;;15.45;2.75;;;6.70;99.90;;;;;;5137363;27;20045;-55
2022/12/27 11:15:25;;;;;;;13.13;2.80;;;6.60;99.90;;;;;;5117316;27;20545;-53
2022/12/27 11:18:21;;;;;;;15.13;2.70;;;6.60;99.90;;;;;;5142849;27;20428;-55
2022/12/27 11:20:53;;;;;;;22.35;3.65;;;6.60;99.90;;;;;;5136054;27;20869;-57
2022/12/27 11:23:22;;;;;;;15.63;2.70;;;6.50;99.90;;;;;;5140761;27;20445;-56
2022/12/27 11:25:53;;;;;;;14.63;2.80;;;6.50;99.90;;;;;;5103751;27;20058;-56
2022/12/27 11:28:37;;;;;;;16.65;3.78;;;6.40;99.90;;;;;;5139513;27;20452;-56
2022/12/27 11:31:30;;;;;;;14.85;2.60;;;6.40;99.90;;;;;;5136710;27;20031;-54
2022/12/27 11:33:59;;;;;;;15.13;2.53;;;6.40;99.90;;;;;;5125995;27;20109;-55
2022/12/27 11:36:39;;;;;;;14.57;2.60;;;6.30;99.90;;;;;;5137355;27;20466;-56
2022/12/27 11:39:06;;;;;;;16.58;2.85;;;6.10;99.90;;;;;;5136734;27;20765;-51
2022/12/27 11:41:53;;;;;;;9.50;2.30;;;6.00;99.90;;;;;;5138293;27;20065;-55
2022/12/27 11:44:27;;;;;;;21.65;2.80;;;6.00;99.90;;;;;;5142080;27;20523;-54
2022/12/27 11:47:02;;;;;;;7.90;1.77;;;6.20;99.90;;;;;;5145815;27;20714;-52
2022/12/27 11:49:39;;;;;;;17.75;3.38;;;6.50;99.90;;;;;;5147626;27;20031;-50
2022/12/27 11:52:19;;;;;;;18.45;3.25;;;6.60;99.90;;;;;;5138259;27;20058;-56
2022/12/27 11:55:02;;;;;;;17.50;3.28;;;6.60;99.90;;;;;;5137128;27;20030;-54
2022/12/27 11:57:52;;;;;;;14.90;2.63;;;6.70;99.90;;;;;;5108840;27;20359;-54
2022/12/27 12:00:22;;;;;;;16.20;2.75;;;6.70;99.90;;;;;;5139751;27;20354;-55
2022/12/27 12:03:04;;;;;;;12.90;2.35;;;6.70;99.90;;;;;;5139754;27;20042;-55
2022/12/27 12:05:58;;;;;;;17.98;3.38;;;6.60;99.90;;;;;;5132847;27;20119;-54
2022/12/27 12:08:48;;;;;;;14.68;2.42;;;6.60;99.90;;;;;;5135684;27;20043;-51
2022/12/27 12:11:25;;;;;;;15.57;2.95;;;6.40;99.90;;;;;;5133811;27;20371;-54
2022/12/27 12:13:59;;;;;;;19.98;3.10;;;6.30;99.90;;;;;;5133578;27;20156;-53
2022/12/27 12:16:52;;;;;;;15.68;2.75;;;6.30;99.90;;;;;;5136601;27;20125;-52
2022/12/27 12:19:44;;;;;;;20.35;3.53;;;6.40;99.90;;;;;;5131317;27;20045;-56
2022/12/27 12:22:28;;;;;;;16.73;2.75;;;6.50;99.90;;;;;;5131845;27;20107;-55
2022/12/27 12:25:13;;;;;;;;;;;6.40;99.90;;;;;;5132102;27;20549;-51
2022/12/27 12:27:56;;;;;;;13.30;2.55;;;6.50;99.90;;;;;;5137755;27;20399;-53
2022/12/27 12:30:43;;;;;;;13.45;2.75;;;6.50;99.90;;;;;;5135630;27;20051;-52
2022/12/27 12:33:31;;;;;;;18.65;3.35;;;6.60;99.90;;;;;;5136059;27;20090;-53
2022/12/27 12:36:17;;;;;;;13.60;2.65;;;6.60;99.90;;;;;;5134881;27;20281;-53
2022/12/27 12:38:51;;;;;;;14.50;3.75;;;6.60;99.90;;;;;;5136193;27;20037;-54
2022/12/27 12:41:54;;;;;;;18.67;3.28;;;6.60;99.90;;;;;;5136818;27;20043;-51
2022/12/27 12:44:38;;;;;;;16.60;2.53;;;6.50;99.90;;;;;;5135188;27;20544;-55
2022/12/27 12:47:46;;;;;;;16.52;2.60;;;6.50;99.90;;;;;;5135281;27;20721;-51
2022/12/27 12:50:30;;;;;;;12.07;2.45;;;6.40;99.90;;;;;;5076487;27;20264;-53
2022/12/27 12:53:34;;;;;;;15.40;2.65;;;6.30;99.90;;;;;;5131793;27;20062;-57
2022/12/27 12:56:37;;;;;;;18.60;2.63;;;6.30;99.90;;;;;;5109653;27;20129;-58
2022/12/27 12:59:23;;;;;;;12.73;2.45;;;6.30;99.90;;;;;;5100133;27;20082;-58
2022/12/27 13:01:59;;;;;;;15.40;2.55;;;6.30;99.90;;;;;;5133531;27;20046;-57
2022/12/27 13:04:55;;;;;;;15.25;2.88;;;6.20;99.90;;;;;;5129302;27;20035;-57
2022/12/27 13:07:50;;;;;;;14.30;2.33;;;6.20;99.90;;;;;;5137481;27;20124;-56
2022/12/27 13:10:53;;;;;;;16.13;2.60;;;6.20;99.90;;;;;;5138270;27;20026;-57
2022/12/27 13:13:52;;;;;;;12.10;2.50;;;6.10;99.90;;;;;;5130355;27;20043;-58
2022/12/27 13:16:56;;;;;;;10.90;2.75;;;6.10;99.90;;;;;;5130572;27;20057;-57
2022/12/27 13:19:42;;;;;;;16.35;3.20;;;6.10;99.90;;;;;;5139114;27;20122;-51
2022/12/27 13:22:41;;;;;;;14.10;2.60;;;6.10;99.90;;;;;;5134879;27;20046;-54
2022/12/27 13:25:36;;;;;;;18.33;2.78;;;6.10;99.90;;;;;;5129988;27;20039;-56
2022/12/27 13:28:23;;;;;;;16.48;2.55;;;6.10;99.90;;;;;;5133957;27;20043;-53
2022/12/27 13:31:17;;;;;;;13.98;2.85;;;6.10;99.90;;;;;;5130790;27;20038;-51
2022/12/27 13:34:04;;;;;;;18.70;3.70;;;6.10;99.90;;;;;;5130958;27;20776;-52
2022/12/27 13:36:56;;;;;;;18.48;3.10;;;6.10;99.90;;;;;;5129056;27;20038;-54
2022/12/27 13:39:37;;;;;;;12.63;3.28;;;6.10;99.90;;;;;;5108401;27;20042;-54
2022/12/27 13:42:34;;;;;;;20.50;3.53;;;6.10;99.90;;;;;;5126626;27;20471;-50
2022/12/27 13:45:09;;;;;;;15.40;3.58;;;6.00;99.90;;;;;;5131433;27;20051;-56
2022/12/27 13:47:47;;;;;;;16.80;3.85;;;6.00;99.90;;;;;;5132559;27;20508;-52
2022/12/27 13:50:50;;;;;;;23.40;4.40;;;6.00;99.90;;;;;;5129915;27;20078;-57
2022/12/27 13:53:57;;;;;;;13.75;3.55;;;5.90;99.90;;;;;;5133379;27;20031;-55
2022/12/27 13:56:44;;;;;;;20.15;3.38;;;5.90;99.90;;;;;;5087536;27;20046;-57
2022/12/27 13:59:28;;;;;;;24.50;4.15;;;5.90;99.90;;;;;;5133612;27;20062;-56
2022/12/27 14:02:32;;;;;;;18.48;4.55;;;5.80;99.90;;;;;;5133134;27;20039;-57
2022/12/27 14:05:00;;;;;;;18.63;4.05;;;5.80;99.90;;;;;;5129991;27;20116;-52
2022/12/27 14:07:56;;;;;;;19.92;4.63;;;5.70;99.90;;;;;;5130511;27;20398;-55
2022/12/27 14:10:44;;;;;;;17.08;4.22;;;5.70;99.90;;;;;;5129379;27;20050;-56
2022/12/27 14:13:10;;;;;;;16.35;3.92;;;5.60;99.90;;;;;;5130370;27;20049;-57
2022/12/27 14:15:51;;;;;;;17.40;4.35;;;5.60;99.90;;;;;;5130059;27;20079;-53
2022/12/27 14:18:57;;;;;;;16.25;4.25;;;5.60;99.90;;;;;;5127654;27;20043;-56
2022/12/27 14:21:41;;;;;;;18.63;4.72;;;5.60;99.90;;;;;;5105046;28;20107;-54
2022/12/27 14:25:02;;;;;;;14.68;4.50;;;5.60;99.90;;;;;;5137682;27;20549;-54
2022/12/27 14:28:05;;;;;;;18.63;5.20;;;5.70;99.90;;;;;;5126409;27;20642;-53
2022/12/27 14:31:01;;;;;;;16.95;5.20;;;5.70;99.90;;;;;;5127584;27;20035;-54
2022/12/27 14:33:42;;;;;;;15.45;5.03;;;5.70;99.90;;;;;;5120774;27;20057;-55
2022/12/27 14:36:44;;;;;;;24.45;4.85;;;5.80;99.90;;;;;;5148013;27;20481;-53
2022/12/27 14:39:49;;;;;;;18.30;5.18;;;5.80;99.90;;;;;;5127554;27;20550;-54
2022/12/27 14:42:52;;;;;;;17.77;5.55;;;5.80;99.90;;;;;;5085881;27;20043;-55
2022/12/27 14:45:55;;;;;;;15.55;6.30;;;5.80;99.90;;;;;;5130086;27;20266;-55
2022/12/27 14:48:38;;;;;;;18.25;6.63;;;5.80;99.90;;;;;;5144796;27;20074;-55
2022/12/27 14:51:19;;;;;;;18.20;6.63;;;5.80;99.90;;;;;;5127200;27;20130;-52
2022/12/27 14:54:03;;;;;;;19.58;6.85;;;5.80;99.90;;;;;;5144598;27;20457;-50
2022/12/27 14:56:57;;;;;;;24.23;8.05;;;5.80;99.90;;;;;;5132355;27;20050;-55
2022/12/27 14:59:43;;;;;;;23.45;7.90;;;5.70;99.90;;;;;;5087389;27;20114;-53
2022/12/27 15:02:35;;;;;;;20.45;8.02;;;5.70;99.90;;;;;;5134038;27;20050;-50
2022/12/27 15:05:31;;;;;;;17.60;8.35;;;5.60;99.90;;;;;;5147122;27;20046;-55